Time;durP1;ratioP1;P1;durP2;ratioP2;P2;SDS_P1;SDS_P2;PMS_P1;PMS_P2;Temp;Humidity;BMP_temperature;BMP_pressure;BME280_temperature;BME280_humidity;BME280_pressure;Samples;Min_cycle;Max_cycle;Signal;HPM_P1;HPM_P2
2023/01/03 00:00:52;;;;;;;20.83;9.80;;;;;;;8.83;96.16;100046.31;5056943;23;20386;-66
2023/01/03 00:03:19;;;;;;;20.10;9.57;;;;;;;8.93;95.72;100042.81;5055428;23;20209;-67
2023/01/03 00:05:47;;;;;;;20.00;9.07;;;;;;;8.95;95.00;100043.50;5054585;23;20550;-66
2023/01/03 00:08:14;;;;;;;21.17;10.43;;;;;;;8.93;95.21;100048.94;5048376;23;20238;-69
2023/01/03 00:10:41;;;;;;;19.63;9.33;;;;;;;8.92;95.74;100052.59;5068042;23;20666;-68
2023/01/03 00:13:07;;;;;;;20.70;9.03;;;;;;;8.96;95.47;100053.13;5051759;23;20278;-68
2023/01/03 00:15:35;;;;;;;20.20;9.90;;;;;;;8.93;95.36;100042.81;5064044;23;20556;-68
2023/01/03 00:18:02;;;;;;;23.37;9.77;;;;;;;8.88;95.74;100057.34;5045029;23;21165;-69
2023/01/03 00:20:28;;;;;;;24.40;9.43;;;;;;;8.88;95.42;100067.13;5063572;23;21408;-65
2023/01/03 00:22:55;;;;;;;21.60;9.27;;;;;;;8.91;95.31;100066.00;5053203;23;23104;-69
2023/01/03 00:25:22;;;;;;;18.37;9.07;;;;;;;8.81;95.67;100066.84;5036316;23;21152;-66
2023/01/03 00:27:48;;;;;;;18.97;9.30;;;;;;;8.76;96.19;100068.25;5032164;23;20938;-68
2023/01/03 00:30:15;;;;;;;19.13;9.33;;;;;;;8.80;96.19;100075.81;5068473;23;20274;-67
2023/01/03 00:32:42;;;;;;;20.20;8.67;;;;;;;8.78;96.41;100077.75;5068053;23;20267;-68
2023/01/03 00:35:08;;;;;;;22.07;9.87;;;;;;;8.81;96.23;100074.81;5027618;23;20204;-67
2023/01/03 00:37:35;;;;;;;20.73;9.43;;;;;;;8.77;96.11;100080.53;5053324;23;20821;-67
2023/01/03 00:40:03;;;;;;;21.40;9.13;;;;;;;8.72;96.55;100083.63;5061787;23;20204;-67
2023/01/03 00:43:27;;;;;;;19.50;8.97;;;;;;;8.73;96.87;100084.44;5046906;23;20390;-65
2023/01/03 00:45:16;;;;;;;18.90;8.83;;;;;;;8.82;96.34;100088.91;5067705;23;21764;-68
2023/01/03 00:47:46;;;;;;;20.17;8.97;;;;;;;8.75;97.08;100087.78;5061947;23;22964;-68
2023/01/03 00:50:12;;;;;;;21.90;9.60;;;;;;;8.74;96.77;100089.63;5059859;23;20279;-68
2023/01/03 00:52:39;;;;;;;17.50;8.63;;;;;;;8.74;96.90;100099.41;5057344;23;20212;-68
2023/01/03 00:55:06;;;;;;;20.70;9.17;;;;;;;8.79;96.69;100100.63;5048638;23;20386;-67
2023/01/03 00:57:32;;;;;;;19.50;9.40;;;;;;;8.76;96.52;100105.41;5030450;23;20288;-68
2023/01/03 00:59:59;;;;;;;26.00;8.53;;;;;;;8.73;96.79;100111.81;5030503;23;20220;-67
2023/01/03 01:02:26;;;;;;;18.33;8.37;;;;;;;8.74;97.00;100105.53;5039463;23;20308;-67
2023/01/03 01:04:53;;;;;;;20.10;9.10;;;;;;;8.77;97.00;100105.25;5029986;23;20251;-70
2023/01/03 01:07:19;;;;;;;25.07;9.37;;;;;;;8.76;96.88;100108.88;5027598;23;20309;-66
2023/01/03 01:09:46;;;;;;;23.93;9.73;;;;;;;8.81;97.04;100101.34;5035030;23;22861;-67
2023/01/03 01:12:12;;;;;;;24.43;10.00;;;;;;;8.87;96.24;100103.44;5020285;23;21682;-69
2023/01/03 01:14:39;;;;;;;18.03;9.27;;;;;;;8.90;96.71;100106.75;5025256;23;24231;-66
2023/01/03 01:17:07;;;;;;;21.43;9.27;;;;;;;8.95;96.10;100109.84;5035451;23;21076;-66
2023/01/03 01:19:37;;;;;;;18.03;8.27;;;;;;;8.92;96.22;100115.41;5029787;23;20283;-68
2023/01/03 01:22:05;;;;;;;19.90;8.57;;;;;;;8.92;95.93;100116.28;5020363;23;21735;-67
2023/01/03 01:24:32;;;;;;;21.13;8.63;;;;;;;8.98;95.85;100114.84;5032611;23;20208;-68
2023/01/03 01:26:59;;;;;;;20.67;9.23;;;;;;;8.95;96.00;100115.16;5045630;23;20570;-68
2023/01/03 01:29:26;;;;;;;17.93;8.40;;;;;;;8.97;95.58;100126.47;5035070;23;26395;-66
2023/01/03 01:31:53;;;;;;;20.40;9.20;;;;;;;8.96;95.96;100127.44;5034902;23;23611;-68
2023/01/03 01:34:19;;;;;;;20.03;9.67;;;;;;;9.03;95.94;100136.50;5032351;23;20391;-67
2023/01/03 01:36:46;;;;;;;17.97;8.07;;;;;;;9.03;95.58;100139.97;5030600;23;20208;-67
2023/01/03 01:39:17;;;;;;;18.50;8.43;;;;;;;9.03;95.54;100133.84;5034369;23;20228;-67
2023/01/03 01:44:43;;;;;;;19.20;8.87;;;;;;;9.11;95.49;100147.25;5046908;23;20274;-68
2023/01/03 01:47:18;;;;;;;19.30;8.27;;;;;;;9.17;94.96;100146.66;5005532;23;20212;-67
2023/01/03 01:49:48;;;;;;;24.53;8.70;;;;;;;9.32;94.62;100144.41;5042526;23;22986;-67
2023/01/03 01:52:15;;;;;;;21.03;8.40;;;;;;;9.26;94.18;100145.81;5041198;23;20200;-70
2023/01/03 01:54:42;;;;;;;20.33;8.60;;;;;;;9.21;94.72;100148.06;5033433;23;20215;-70
2023/01/03 01:57:11;;;;;;;22.13;8.43;;;;;;;9.22;94.49;100149.72;5050499;23;20553;-68
2023/01/03 01:59:38;;;;;;;26.47;9.20;;;;;;;9.15;94.48;100153.09;5027096;23;20205;-67
2023/01/03 02:02:05;;;;;;;21.53;8.40;;;;;;;9.16;94.80;100155.63;5025798;23;20214;-68
2023/01/03 02:04:34;;;;;;;17.67;7.80;;;;;;;9.20;94.76;100157.00;5050542;23;21248;-67
2023/01/03 02:07:02;;;;;;;22.67;8.33;;;;;;;9.22;94.71;100165.66;5048798;23;20236;-68
2023/01/03 02:09:31;;;;;;;19.40;8.60;;;;;;;9.29;94.67;100165.91;5018750;23;20235;-67
2023/01/03 02:15:06;;;;;;;17.53;8.30;;;;;;;9.26;94.13;100164.38;5045149;23;20215;-67
2023/01/03 02:17:42;;;;;;;18.90;7.77;;;;;;;9.23;94.54;100177.97;5035186;23;21205;-68
2023/01/03 02:20:17;;;;;;;18.30;8.20;;;;;;;9.29;94.11;100177.41;5035253;23;20667;-66
2023/01/03 02:23:12;;;;;;;19.37;8.20;;;;;;;9.33;94.59;100182.41;5041670;23;20216;-67
2023/01/03 02:26:12;;;;;;;22.70;7.87;;;;;;;9.30;94.46;100184.38;5043796;23;20537;-68
2023/01/03 02:28:49;;;;;;;20.53;8.33;;;;;;;9.30;94.43;100179.06;5039782;23;22342;-66
2023/01/03 02:31:24;;;;;;;21.50;8.30;;;;;;;9.39;94.19;100184.47;5034130;23;20527;-67
2023/01/03 02:34:16;;;;;;;20.83;8.60;;;;;;;9.39;94.17;100184.47;5034197;23;20239;-66
2023/01/03 02:36:59;;;;;;;20.47;7.83;;;;;;;9.37;93.80;100197.09;5038682;23;20211;-68
2023/01/03 02:39:36;;;;;;;19.10;7.83;;;;;;;9.35;94.20;100201.69;5022652;23;20205;-66
2023/01/03 02:45:17;;;;;;;23.47;8.67;;;;;;;9.37;94.54;100199.75;5055611;23;21753;-67
2023/01/03 02:48:00;;;;;;;19.93;8.57;;;;;;;9.38;94.32;100198.75;5040169;23;21270;-66
2023/01/03 02:50:29;;;;;;;22.27;8.53;;;;;;;9.33;94.88;100193.03;5025673;23;20241;-68
2023/01/03 02:53:01;;;;;;;19.60;8.73;;;;;;;9.25;95.55;100186.63;5004458;23;20328;-66
2023/01/03 02:55:29;;;;;;;18.33;8.30;;;;;;;9.25;95.46;100189.28;5037602;23;21610;-66
2023/01/03 02:58:05;;;;;;;23.73;9.43;;;;;;;9.26;96.20;100193.59;5051415;23;20214;-67
2023/01/03 03:00:33;;;;;;;24.83;9.27;;;;;;;9.14;97.90;100202.72;5020557;23;21637;-66
2023/01/03 03:03:05;;;;;;;21.10;8.63;;;;;;;9.15;98.30;100208.84;5037164;23;20382;-68
2023/01/03 03:05:38;;;;;;;19.70;8.70;;;;;;;9.11;99.39;100210.97;5038599;23;20213;-66
2023/01/03 03:08:05;;;;;;;23.20;8.93;;;;;;;9.02;99.90;100217.94;5032954;23;22539;-68
2023/01/03 03:13:44;;;;;;;20.17;9.47;;;;;;;8.88;100.00;100221.84;5043365;23;20254;-67
2023/01/03 03:16:18;;;;;;;16.20;8.40;;;;;;;8.87;100.00;100220.19;5045951;23;21341;-66
2023/01/03 03:18:59;;;;;;;19.47;8.93;;;;;;;8.86;100.00;100223.81;5018595;23;20205;-67
2023/01/03 03:29:55;;;;;;;21.03;9.17;;;;;;;8.76;100.00;100241.53;5021928;23;22801;-66
2023/01/03 03:32:23;;;;;;;16.93;8.07;;;;;;;8.65;100.00;100250.44;5004100;23;20380;-69
2023/01/03 03:34:52;;;;;;;18.60;7.90;;;;;;;8.57;100.00;100252.97;5046424;23;26449;-68
2023/01/03 03:37:21;;;;;;;18.30;8.40;;;;;;;8.55;100.00;100254.06;5027169;23;23535;-66
2023/01/03 03:45:29;;;;;;;25.60;8.30;;;;;;;8.48;100.00;100259.09;5039237;23;21209;-68
2023/01/03 03:48:02;;;;;;;15.53;7.40;;;;;;;8.45;100.00;100268.16;5044157;23;20695;-66
2023/01/03 03:50:45;;;;;;;16.57;7.73;;;;;;;8.45;100.00;100267.28;5005706;23;20261;-67
2023/01/03 03:53:13;;;;;;;18.87;7.80;;;;;;;8.27;100.00;100269.72;5027092;23;20865;-66
2023/01/03 03:55:43;;;;;;;17.13;7.30;;;;;;;8.25;100.00;100283.09;5018697;23;20214;-67
2023/01/03 03:58:14;;;;;;;15.57;7.50;;;;;;;8.24;100.00;100283.22;5040219;23;21010;-67
2023/01/03 04:00:42;;;;;;;15.40;7.67;;;;;;;8.25;100.00;100284.94;5017590;23;23003;-66
2023/01/03 04:03:09;;;;;;;14.33;7.00;;;;;;;8.25;100.00;100295.53;5035554;23;20384;-66
2023/01/03 04:05:39;;;;;;;14.43;6.47;;;;;;;8.20;100.00;100287.97;5015542;23;20491;-66
2023/01/03 04:08:06;;;;;;;16.03;6.73;;;;;;;8.26;100.00;100310.44;5016573;23;20213;-67
2023/01/03 04:10:33;;;;;;;13.60;6.97;;;;;;;8.18;100.00;100307.63;5039008;23;20664;-67
2023/01/03 04:13:03;;;;;;;14.53;6.30;;;;;;;8.18;100.00;100307.63;5030807;23;20205;-68
2023/01/03 04:15:30;;;;;;;12.50;5.43;;;;;;;8.22;100.00;100309.88;5018228;23;20240;-66
2023/01/03 04:17:57;;;;;;;9.93;5.23;;;;;;;8.27;100.00;100308.66;5027868;23;20206;-67
2023/01/03 04:20:24;;;;;;;9.10;4.53;;;;;;;8.21;100.00;100312.66;5029486;23;20201;-68
2023/01/03 04:22:50;;;;;;;10.73;4.37;;;;;;;8.24;100.00;100321.22;5030342;23;20291;-68
2023/01/03 04:25:17;;;;;;;8.10;4.33;;;;;;;8.23;100.00;100319.50;5037590;23;20285;-67
2023/01/03 04:27:44;;;;;;;9.70;3.73;;;;;;;8.31;100.00;100321.53;5027155;23;20208;-67
2023/01/03 04:30:12;;;;;;;7.57;3.80;;;;;;;8.27;100.00;100333.34;5015843;23;20206;-66
2023/01/03 04:32:38;;;;;;;8.23;3.83;;;;;;;8.36;100.00;100332.56;5035772;23;20211;-67
2023/01/03 04:35:05;;;;;;;7.43;3.60;;;;;;;8.33;99.96;100342.56;5035363;23;20603;-66
2023/01/03 04:37:32;;;;;;;7.33;3.50;;;;;;;8.32;99.38;100347.03;5029817;23;20213;-66
2023/01/03 04:39:59;;;;;;;6.23;3.03;;;;;;;8.26;99.09;100342.25;5027340;23;23116;-67
2023/01/03 04:45:11;;;;;;;7.57;3.20;;;;;;;8.25;97.60;100357.34;5031440;23;20363;-67
2023/01/03 04:47:37;;;;;;;6.37;2.50;;;;;;;8.29;97.40;100362.38;5039049;23;20205;-65
2023/01/03 04:50:04;;;;;;;6.80;2.60;;;;;;;8.28;96.83;100358.88;5031216;23;21682;-66
2023/01/03 04:52:31;;;;;;;4.77;2.30;;;;;;;8.30;96.58;100361.41;5034855;23;20205;-69
2023/01/03 04:54:58;;;;;;;3.47;1.53;;;;;;;8.33;96.36;100364.63;5042039;23;20296;-67
2023/01/03 04:57:24;;;;;;;4.63;2.13;;;;;;;8.27;95.75;100369.63;5030530;23;22931;-67
2023/01/03 04:59:51;;;;;;;5.67;2.00;;;;;;;8.35;94.52;100373.28;5008246;23;20872;-67
2023/01/03 05:02:17;;;;;;;4.27;1.67;;;;;;;8.31;94.18;100374.53;5004407;23;20220;-68
2023/01/03 05:04:47;;;;;;;3.77;1.90;;;;;;;8.33;94.61;100380.53;5020201;23;20214;-67
2023/01/03 05:07:13;;;;;;;3.03;1.70;;;;;;;8.21;95.27;100382.41;5024252;23;21041;-66
2023/01/03 05:09:40;;;;;;;4.57;2.10;;;;;;;8.20;95.50;100390.53;5010284;23;20205;-66
2023/01/03 05:12:07;;;;;;;4.63;1.90;;;;;;;8.12;96.24;100387.66;5037239;23;20212;-68
2023/01/03 05:14:34;;;;;;;5.00;1.87;;;;;;;8.09;97.08;100387.94;5027243;23;21340;-67
2023/01/03 05:17:01;;;;;;;3.80;1.80;;;;;;;8.11;97.91;100396.59;5023788;23;20355;-67
2023/01/03 05:19:28;;;;;;;6.47;2.23;;;;;;;8.19;96.80;100396.78;5049080;23;23206;-66
2023/01/03 05:27:25;;;;;;;5.07;1.77;;;;;;;7.96;97.18;100390.78;5059107;23;20511;-67
2023/01/03 05:29:52;;;;;;;3.37;1.90;;;;;;;7.79;98.29;100387.72;5017836;23;21940;-68
2023/01/03 05:32:19;;;;;;;3.77;1.90;;;;;;;7.73;98.17;100398.84;5032101;23;20260;-66
2023/01/03 05:34:46;;;;;;;5.87;1.90;;;;;;;7.65;98.53;100397.78;5024806;23;20239;-67
2023/01/03 05:37:12;;;;;;;5.10;2.23;;;;;;;7.50;99.47;100397.28;5028105;23;20338;-68
2023/01/03 05:39:39;;;;;;;4.70;2.33;;;;;;;7.44;100.00;100411.00;5045236;23;22962;-66
2023/01/03 05:42:06;;;;;;;4.97;1.90;;;;;;;7.34;99.96;100402.97;5026700;23;20246;-68
2023/01/03 05:44:33;;;;;;;8.23;2.53;;;;;;;7.28;100.00;100414.03;5035230;23;20221;-66
2023/01/03 05:47:02;;;;;;;5.30;2.30;;;;;;;7.19;100.00;100413.84;5033522;23;21662;-67
2023/01/03 05:49:29;;;;;;;5.07;2.77;;;;;;;7.15;100.00;100419.50;5029769;23;21443;-68
2023/01/03 05:51:55;;;;;;;6.13;2.43;;;;;;;7.03;100.00;100416.03;5032242;23;20204;-68
2023/01/03 05:54:22;;;;;;;7.47;2.70;;;;;;;7.05;100.00;100416.75;5031471;23;20270;-68
2023/01/03 05:56:49;;;;;;;8.77;3.03;;;;;;;6.96;100.00;100425.44;5023082;23;21173;-67
2023/01/03 05:59:17;;;;;;;7.10;3.27;;;;;;;6.88;100.00;100420.75;5020708;23;21611;-68
2023/01/03 06:01:44;;;;;;;12.57;3.00;;;;;;;6.89;100.00;100433.00;5038255;23;20354;-66
2023/01/03 06:04:11;;;;;;;8.80;2.80;;;;;;;6.80;100.00;100430.25;5075472;23;20212;-68
2023/01/03 06:06:37;;;;;;;7.17;2.70;;;;;;;6.81;100.00;100437.19;5023257;23;20205;-67
2023/01/03 06:09:04;;;;;;;8.93;3.07;;;;;;;6.71;100.00;100430.00;5036250;23;20210;-67
2023/01/03 06:11:31;;;;;;;10.23;3.37;;;;;;;6.62;100.00;100443.09;5029880;23;20214;-67
2023/01/03 06:13:57;;;;;;;10.97;2.97;;;;;;;6.59;100.00;100438.06;5029529;23;20205;-69
2023/01/03 06:19:10;;;;;;;7.10;3.47;;;;;;;6.51;100.00;100451.88;5043121;23;20215;-67
2023/01/03 06:21:37;;;;;;;8.17;4.00;;;;;;;6.44;100.00;100448.84;5031078;23;23267;-67
2023/01/03 06:24:04;;;;;;;8.03;3.60;;;;;;;6.43;100.00;100446.31;5032233;23;20609;-65
2023/01/03 06:26:31;;;;;;;9.03;4.30;;;;;;;6.41;100.00;100445.59;5036951;23;21242;-69
2023/01/03 06:28:58;;;;;;;8.67;3.00;;;;;;;6.47;100.00;100453.06;5029823;23;21940;-67
2023/01/03 06:31:24;;;;;;;8.17;3.27;;;;;;;6.47;100.00;100458.34;5008044;23;20205;-66
2023/01/03 06:33:51;;;;;;;9.20;2.57;;;;;;;6.53;100.00;100453.44;5038689;23;20212;-69
2023/01/03 06:36:20;;;;;;;4.90;2.23;;;;;;;6.52;100.00;100449.09;5034523;23;20213;-66
2023/01/03 06:38:46;;;;;;;5.83;2.57;;;;;;;6.50;100.00;100460.75;5031158;23;20317;-65
2023/01/03 06:41:14;;;;;;;8.27;2.53;;;;;;;6.48;100.00;100462.66;5032641;23;20594;-67
2023/01/03 06:43:41;;;;;;;5.40;2.27;;;;;;;6.48;100.00;100468.78;5038018;23;20668;-67
2023/01/03 06:54:26;;;;;;;3.93;1.90;;;;;;;6.50;100.00;100493.31;5005588;23;20303;-66
2023/01/03 06:56:53;;;;;;;7.30;1.93;;;;;;;6.49;100.00;100498.72;5044469;23;21050;-65
2023/01/03 06:59:20;;;;;;;5.17;2.17;;;;;;;6.47;100.00;100490.91;5232598;23;20920;-66
2023/01/03 07:01:48;;;;;;;5.43;1.97;;;;;;;6.47;100.00;100503.28;5011560;23;20254;-67
2023/01/03 07:04:15;;;;;;;4.57;2.03;;;;;;;6.49;100.00;100507.50;5027783;23;20812;-67
2023/01/03 07:06:42;;;;;;;7.20;2.00;;;;;;;6.51;100.00;100507.38;5040643;23;20208;-69
2023/01/03 07:09:10;;;;;;;5.37;2.20;;;;;;;6.54;100.00;100509.78;5034300;23;20205;-68
2023/01/03 07:11:37;;;;;;;13.73;5.17;;;;;;;6.55;100.00;100512.31;5032647;23;20272;-70
2023/01/03 07:14:05;;;;;;;7.20;2.50;;;;;;;6.59;100.00;100512.91;5031040;23;20280;-71
2023/01/03 07:16:37;;;;;;;3.63;2.23;;;;;;;6.59;100.00;100518.22;5039049;23;23566;-68
2023/01/03 07:19:05;;;;;;;3.80;2.00;;;;;;;6.55;100.00;100514.97;5021650;23;20212;-72
2023/01/03 07:21:33;;;;;;;5.53;2.23;;;;;;;6.67;100.00;100514.97;5045094;23;20212;-68
2023/01/03 07:24:01;;;;;;;5.50;2.20;;;;;;;6.66;100.00;100523.88;5058978;23;20208;-71
2023/01/03 07:26:29;;;;;;;4.67;2.40;;;;;;;6.62;100.00;100528.53;5061169;23;21804;-69
2023/01/03 07:28:57;;;;;;;8.07;2.83;;;;;;;6.64;100.00;100528.44;5051807;23;20208;-68
2023/01/03 07:31:23;;;;;;;9.67;2.53;;;;;;;6.62;100.00;100533.81;5066113;23;20643;-67
2023/01/03 07:33:51;;;;;;;6.80;2.83;;;;;;;6.67;100.00;100536.97;5025313;23;20215;-70
2023/01/03 07:36:21;;;;;;;10.90;3.60;;;;;;;6.65;100.00;100543.31;5040850;23;20283;-69
2023/01/03 07:38:48;;;;;;;9.97;3.30;;;;;;;6.68;100.00;100545.75;5037240;23;25179;-69
2023/01/03 07:41:15;;;;;;;8.03;3.33;;;;;;;6.74;100.00;100545.25;5019458;23;21511;-69
2023/01/03 07:43:44;;;;;;;8.97;3.40;;;;;;;6.71;100.00;100546.34;5036924;23;21339;-69
2023/01/03 07:46:16;;;;;;;8.67;3.10;;;;;;;6.72;100.00;100555.97;5041601;23;22265;-70
2023/01/03 07:48:44;;;;;;;9.63;3.23;;;;;;;6.72;100.00;100561.28;5031926;23;20276;-70
2023/01/03 07:51:13;;;;;;;6.43;3.10;;;;;;;6.83;100.00;100562.25;5024880;23;20254;-68
2023/01/03 07:53:40;;;;;;;9.70;3.47;;;;;;;6.86;100.00;100562.88;5058892;23;20268;-70
2023/01/03 07:56:10;;;;;;;6.73;3.30;;;;;;;6.95;100.00;100570.09;5022451;23;20208;-68
2023/01/03 07:58:43;;;;;;;8.67;3.20;;;;;;;7.04;100.00;100576.44;5040745;23;21691;-69
2023/01/03 08:01:21;;;;;;;7.80;3.80;;;;;;;6.98;100.00;100587.53;5060096;23;20210;-69
2023/01/03 08:03:48;;;;;;;8.53;3.60;;;;;;;7.05;100.00;100582.63;5025658;23;20208;-70
2023/01/03 08:06:17;;;;;;;12.67;4.20;;;;;;;7.02;100.00;100583.66;5033574;23;20211;-68
2023/01/03 08:13:16;;;;;;;8.40;3.50;;;;;;;7.05;100.00;100583.44;5020869;23;20215;-70
2023/01/03 08:14:19;;;;;;;10.23;4.03;;;;;;;7.10;100.00;100581.28;5028678;23;20726;-73
2023/01/03 08:16:52;;;;;;;11.30;3.87;;;;;;;7.10;100.00;100586.56;5051943;23;20211;-72
2023/01/03 08:19:19;;;;;;;11.40;5.60;;;;;;;7.08;100.00;100588.50;5052605;23;20261;-70
2023/01/03 08:21:45;;;;;;;9.43;4.70;;;;;;;7.13;100.00;100588.97;5046814;23;20215;-71
2023/01/03 08:24:15;;;;;;;8.50;4.20;;;;;;;7.21;100.00;100588.41;5095980;23;22225;-70
2023/01/03 08:26:45;;;;;;;10.37;5.63;;;;;;;7.27;100.00;100587.06;5053953;23;21466;-71
2023/01/03 08:29:13;;;;;;;13.97;5.80;;;;;;;7.45;100.00;100584.78;5104623;23;20332;-71
2023/01/03 08:31:44;;;;;;;10.30;5.77;;;;;;;7.59;100.00;100590.66;5113817;23;21295;-71
2023/01/03 08:34:11;;;;;;;13.97;6.30;;;;;;;7.66;100.00;100596.31;5093101;23;20274;-70
2023/01/03 08:36:49;;;;;;;9.57;6.20;;;;;;;7.85;100.00;100603.63;5043616;23;21638;-70
2023/01/03 08:39:19;;;;;;;14.03;7.50;;;;;;;7.79;100.00;100610.25;5099627;23;20203;-69
2023/01/03 08:41:54;;;;;;;12.50;6.67;;;;;;;7.77;100.00;100608.69;5047250;23;20249;-71
2023/01/03 08:44:21;;;;;;;15.80;7.17;;;;;;;7.79;100.00;100620.00;5061029;23;20615;-68
2023/01/03 08:46:50;;;;;;;14.47;6.97;;;;;;;7.72;100.00;100613.53;5024273;23;20238;-71
2023/01/03 08:49:17;;;;;;;11.00;6.00;;;;;;;7.65;100.00;100617.63;5084638;23;20236;-69
2023/01/03 08:51:46;;;;;;;12.03;6.60;;;;;;;7.61;100.00;100622.34;5018779;23;22326;-71
2023/01/03 08:54:13;;;;;;;9.87;6.10;;;;;;;7.60;100.00;100634.72;5044749;23;20229;-71
2023/01/03 08:56:41;;;;;;;11.60;5.83;;;;;;;7.63;100.00;100628.31;5051197;23;21585;-72
2023/01/03 08:59:07;;;;;;;12.50;5.83;;;;;;;7.64;100.00;100637.13;5063678;23;20230;-71
2023/01/03 09:01:34;;;;;;;12.37;5.47;;;;;;;7.68;100.00;100641.19;5051942;23;21108;-70
2023/01/03 09:04:01;;;;;;;13.10;5.93;;;;;;;7.71;100.00;100633.88;5042244;23;20257;-73
2023/01/03 09:06:27;;;;;;;11.80;5.80;;;;;;;7.75;100.00;100631.81;5018763;23;23515;-72
2023/01/03 09:08:54;;;;;;;8.93;4.87;;;;;;;7.85;99.96;100650.50;5070412;23;20204;-70
2023/01/03 09:11:21;;;;;;;10.23;5.33;;;;;;;7.89;98.79;100649.25;5048356;23;20259;-69
2023/01/03 09:13:47;;;;;;;8.80;4.50;;;;;;;7.90;97.93;100654.44;5041410;23;20649;-72
2023/01/03 09:16:15;;;;;;;7.77;4.50;;;;;;;8.15;96.45;100655.13;5042977;23;20298;-68
2023/01/03 09:18:42;;;;;;;8.90;3.30;;;;;;;8.56;91.65;100650.94;5063778;23;21605;-71
2023/01/03 09:21:09;;;;;;;11.23;3.67;;;;;;;10.19;85.49;100658.22;5077837;23;20526;-70
2023/01/03 09:23:36;;;;;;;4.87;2.57;;;;;;;11.11;76.22;100676.50;5049387;23;20220;-71
2023/01/03 09:26:04;;;;;;;9.47;2.13;;;;;;;11.81;67.88;100680.50;5047038;23;20209;-67
2023/01/03 09:28:30;;;;;;;6.80;1.77;;;;;;;11.66;68.72;100676.63;5034815;23;20211;-71
2023/01/03 09:30:57;;;;;;;2.63;1.50;;;;;;;10.73;70.32;100679.03;5078417;23;25848;-71
2023/01/03 09:33:24;;;;;;;8.27;1.83;;;;;;;10.14;72.06;100672.78;5050049;23;20204;-70
2023/01/03 09:35:53;;;;;;;8.07;1.87;;;;;;;10.24;72.15;100671.97;5072607;23;20375;-69
2023/01/03 09:38:21;;;;;;;3.90;1.67;;;;;;;10.66;69.87;100685.91;5037099;23;20204;-68
2023/01/03 09:40:56;;;;;;;3.67;1.87;;;;;;;10.85;68.55;100684.22;5042703;23;20202;-68
2023/01/03 09:43:32;;;;;;;4.13;2.03;;;;;;;12.52;61.49;100700.34;5261891;23;21716;-68
2023/01/03 09:46:00;;;;;;;6.70;2.20;;;;;;;13.55;55.97;100707.91;5067274;23;20209;-67
2023/01/03 09:48:35;;;;;;;2.83;1.30;;;;;;;15.73;48.80;100727.47;5034530;23;20492;-68
2023/01/03 09:51:03;;;;;;;5.03;1.70;;;;;;;15.62;48.62;100734.84;5122968;23;20204;-68
2023/01/03 10:05:52;;;;;;;5.77;1.33;;;;;;;16.12;43.99;100740.09;5082504;23;20211;-71
2023/01/03 10:08:38;;;;;;;6.03;1.60;;;;;;;16.99;42.09;100739.97;5075936;23;20200;-68
2023/01/03 10:11:08;;;;;;;6.87;1.10;;;;;;;17.80;36.97;100749.16;5042575;23;20289;-72
2023/01/03 10:13:47;;;;;;;3.73;1.40;;;;;;;14.39;42.50;100738.41;5082116;23;21894;-72
2023/01/03 10:16:34;;;;;;;5.77;1.00;;;;;;;12.07;49.29;100719.84;5111994;23;20390;-72
2023/01/03 10:19:25;;;;;;;3.20;1.00;;;;;;;12.11;50.26;100718.56;5154907;23;20901;-72
2023/01/03 10:22:03;;;;;;;3.63;0.97;;;;;;;11.95;48.10;100718.38;5117726;23;23107;-68
2023/01/03 10:24:33;;;;;;;7.70;1.07;;;;;;;10.84;50.33;100727.78;5075698;23;21527;-70
2023/01/03 10:27:07;;;;;;;5.83;0.90;;;;;;;9.95;53.88;100715.25;5086233;23;20204;-70
2023/01/03 10:29:33;;;;;;;3.30;1.20;;;;;;;9.55;56.72;100708.06;5070504;23;20275;-69
2023/01/03 10:32:06;;;;;;;2.80;1.00;;;;;;;9.38;57.11;100704.19;5089231;23;21869;-68
2023/01/03 10:34:33;;;;;;;6.17;1.23;;;;;;;9.35;57.88;100706.28;5093411;23;20404;-69
2023/01/03 10:37:00;;;;;;;2.63;1.30;;;;;;;11.22;52.96;100710.97;5146036;23;21572;-71
2023/01/03 10:39:30;;;;;;;1.80;1.07;;;;;;;14.65;42.91;100744.53;5155454;23;23107;-66
2023/01/03 10:41:58;;;;;;;6.90;1.20;;;;;;;15.23;39.31;100744.59;5093474;23;21510;-68
2023/01/03 10:44:30;;;;;;;7.57;1.07;;;;;;;13.31;42.38;100744.16;5078874;23;20631;-67
2023/01/03 10:47:13;;;;;;;4.87;1.17;;;;;;;12.83;44.57;100740.88;5042491;23;20217;-71
2023/01/03 10:49:43;;;;;;;2.93;0.93;;;;;;;12.23;45.78;100744.06;5070614;23;21227;-67
2023/01/03 10:52:18;;;;;;;6.40;1.27;;;;;;;11.52;48.14;100733.91;5085467;23;20233;-69
2023/01/03 10:54:48;;;;;;;3.17;0.97;;;;;;;10.69;51.47;100724.69;5047776;23;20234;-71
2023/01/03 10:57:42;;;;;;;2.77;1.30;;;;;;;9.68;55.62;100714.00;5046489;23;21176;-73
2023/01/03 11:00:30;;;;;;;4.57;1.30;;;;;;;10.45;53.98;100722.44;5122707;23;20890;-75
2023/01/03 11:03:24;;;;;;;3.47;1.10;;;;;;;12.02;49.38;100730.97;5111673;23;25649;-66
2023/01/03 11:05:59;;;;;;;2.13;1.27;;;;;;;13.03;44.25;100748.75;5110229;23;20209;-68
2023/01/03 11:08:46;;;;;;;3.13;1.10;;;;;;;12.78;44.49;100734.31;5099927;23;21171;-71
2023/01/03 11:11:31;;;;;;;2.17;0.90;;;;;;;11.83;46.22;100737.19;5062793;23;20567;-70
2023/01/03 11:14:14;;;;;;;4.00;1.47;;;;;;;9.73;52.36;100730.38;5118227;23;20259;-69
2023/01/03 11:16:43;;;;;;;4.07;1.50;;;;;;;8.79;57.74;100720.66;5075950;23;22242;-71
2023/01/03 11:19:15;;;;;;;4.40;1.60;;;;;;;8.58;58.70;100723.28;5063964;23;20215;-68
2023/01/03 11:21:48;;;;;;;4.67;1.80;;;;;;;8.49;59.96;100724.03;5048662;23;20209;-69
2023/01/03 11:24:28;;;;;;;7.43;1.97;;;;;;;8.36;62.38;100716.19;5024267;23;20295;-70
2023/01/03 11:27:07;;;;;;;7.67;1.80;;;;;;;8.39;63.20;100714.13;5059508;23;21606;-71
2023/01/03 11:29:50;;;;;;;6.07;2.00;;;;;;;8.42;64.00;100721.00;5075645;23;20208;-70
2023/01/03 11:32:23;;;;;;;8.53;2.20;;;;;;;8.47;64.49;100720.66;5041363;23;21528;-71
2023/01/03 11:35:13;;;;;;;2.73;1.30;;;;;;;8.38;61.26;100722.19;5110154;23;20884;-70
2023/01/03 11:38:10;;;;;;;7.53;1.50;;;;;;;8.32;60.93;100717.41;5061843;23;21212;-71
2023/01/03 11:40:58;;;;;;;3.93;1.70;;;;;;;8.06;61.97;100732.75;5064722;23;20215;-71
2023/01/03 11:43:40;;;;;;;5.40;1.57;;;;;;;8.07;62.45;100737.91;5088586;23;20206;-71
2023/01/03 11:46:38;;;;;;;6.63;2.10;;;;;;;8.04;61.53;100724.91;5040725;23;20528;-70
2023/01/03 11:49:23;;;;;;;6.27;1.90;;;;;;;7.99;62.29;100729.72;5058282;23;20214;-71
2023/01/03 11:52:18;;;;;;;3.93;1.80;;;;;;;7.50;64.84;100720.31;5116846;23;20208;-70
2023/01/03 11:55:22;;;;;;;9.43;2.30;;;;;;;7.35;65.63;100731.13;5056761;23;20209;-72
2023/01/03 11:57:55;;;;;;;6.23;1.73;;;;;;;7.38;65.07;100730.03;5072256;23;20219;-72
2023/01/03 12:00:33;;;;;;;6.90;1.77;;;;;;;7.35;65.28;100727.59;5075373;23;21013;-72
2023/01/03 12:03:01;;;;;;;5.33;1.50;;;;;;;7.31;64.51;100736.75;5021487;23;20307;-72
2023/01/03 12:05:48;;;;;;;6.73;1.60;;;;;;;7.28;65.38;100724.59;5011854;23;20535;-72
2023/01/03 12:08:28;;;;;;;10.30;1.50;;;;;;;7.37;64.96;100730.97;5067701;23;20257;-69
2023/01/03 12:11:14;;;;;;;4.03;1.70;;;;;;;7.22;65.64;100732.16;5020092;23;20265;-69
2023/01/03 12:13:48;;;;;;;4.63;1.67;;;;;;;7.15;65.45;100737.06;5024508;23;20206;-69
2023/01/03 12:16:25;;;;;;;7.17;1.87;;;;;;;7.14;66.02;100738.88;5029320;23;25515;-70
2023/01/03 12:18:58;;;;;;;6.53;1.37;;;;;;;7.10;66.64;100740.06;5009443;23;20207;-68
2023/01/03 12:21:39;;;;;;;10.83;2.17;;;;;;;7.25;66.70;100732.75;5011368;23;20206;-68
2023/01/03 12:24:32;;;;;;;5.00;1.53;;;;;;;7.05;66.05;100734.28;5041850;23;20217;-70
2023/01/03 12:27:12;;;;;;;9.60;2.47;;;;;;;7.01;66.66;100735.44;5025755;23;20355;-67
2023/01/03 12:29:44;;;;;;;7.60;1.80;;;;;;;7.00;67.26;100722.31;5002783;23;20209;-67
2023/01/03 12:32:15;;;;;;;8.40;1.93;;;;;;;6.95;67.74;100726.19;5013555;23;20253;-72
2023/01/03 12:34:49;;;;;;;4.73;1.57;;;;;;;6.85;67.48;100732.25;5002586;23;20251;-71
2023/01/03 12:37:22;;;;;;;9.03;2.70;;;;;;;6.84;66.70;100738.53;4985966;23;20588;-71
2023/01/03 12:40:00;;;;;;;6.27;1.83;;;;;;;6.90;68.74;100732.75;5014468;23;20333;-72
2023/01/03 12:42:35;;;;;;;6.77;1.80;;;;;;;6.89;69.41;100723.16;5001001;23;20230;-70
2023/01/03 12:45:13;;;;;;;6.70;1.43;;;;;;;6.73;70.28;100721.63;5021600;23;20379;-69